ESNL

Details ICAO ESNL (LYC)
Name LYCKSELE
Region Sweden
Timezone Europe/Stockholm (UTC+1.0)
Plans Departing 9
Arriving 1
Stats Elevation 705 ft / 215 m (AMSL)
Location 64.549570° 18.714026°
Runways 1
Magnetic Variation 7.413° E
Sunrise 2017-12-18 08:45:51 UTC / 2017-12-18 09:45:51 Local
Sunset 2017-12-18 12:40:19 UTC / 2017-12-18 13:40:19 Local
Advertisement - Login to hide

Runways

ID Width Length Bearing (true) Bearing (mag) Surface Threshold Offset Overrun Length
14 98 ft / 30 m 6,546 ft / 1,995 m 142.97° 135.56° Asphalt 493 ft / 150 m 0 ft / 0 m
32 98 ft / 30 m 6,546 ft / 1,995 m 323.00° 315.59° Asphalt 0 ft / 0 m 0 ft / 0 m

Approach Navaids

Runway Type Ident Frequency Range Bearing (true) Bearing (mag) Slope Elevation
14 Localiser WL 108.70 MHz 18 nm / 33 km 142.97° 135.56° - 705 ft / 215 m (AMSL)
14 Glidescope WL 108.70 MHz 10 nm / 19 km 142.98° 135.57° 3.50° 705 ft / 215 m (AMSL)
32 Localiser NL 110.50 MHz 18 nm / 33 km 322.97° 315.56° - 705 ft / 215 m (AMSL)
32 DME NL 110.50 MHz 18 nm / 33 km - - - 705 ft / 215 m (AMSL)

Map

Weather


0- 5 10 15 20 25 30 35+ Temperature / ° C

Clouds and Precipitation
Forecast for 2017-12-18 06:00 UTC. Updated 2 hours ago

Ground ~20,000 ft ~40,000 ft Winds

METAR

ESNL 180450Z AUTO 00000KT 3500 FEW079/// M13/M15 Q1006

TAF

Not found

Frequencies

Tower 122.22 MHz AFIS
Warning: Do not use this data for real-world aviation or navigation. No guarantee of current accuracy is given.